Cobble Hill, Canada
Current Conditions -  °F | °C
As of 10:54 PM on Saturday 20 Dec 2014 (Local Time) from CYYJ Reporting Station
Few Clouds Few Clouds  
Wind Chill: 55°   Ceiling: Unl
Heat Index: 55°   Visibility: 20mi
Dew Point: 46°   Wind: 15mph
Humidity: 72%   Direction: 240°WSW
Pressure: 29.38"   Gusts: 24mph
Location:  48.68°N, 123.6°W
Report Text: CYYJ 210654Z 24013G21KT 20SM FEW035 13/08 A2938 RMK SC2 PRESRR SLP950 DENSITY ALT 400FT
Loading
Personal Weather Stations






























Interactive Weather Map New forecast layout! Learn more

10-Day Weather Forecast

Advertisements
Track Severe Weather on mobile